sensor_id;sensor_type;location;lat;lon;timestamp;P1;durP1;ratioP1;P2;durP2;ratioP2
7613;SDS011;3848;42.016;23.098;2022-12-08T00:01:42;1999.90;;;999.90;;
7613;SDS011;3848;42.016;23.098;2022-12-08T00:04:10;1999.90;;;999.90;;
7613;SDS011;3848;42.016;23.098;2022-12-08T00:06:37;1999.90;;;999.90;;
7613;SDS011;3848;42.016;23.098;2022-12-08T00:09:24;1999.90;;;999.90;;
7613;SDS011;3848;42.016;23.098;2022-12-08T00:11:57;1999.90;;;999.90;;
7613;SDS011;3848;42.016;23.098;2022-12-08T00:14:26;1999.90;;;999.90;;
7613;SDS011;3848;42.016;23.098;2022-12-08T00:16:54;1999.90;;;999.90;;
7613;SDS011;3848;42.016;23.098;2022-12-08T00:19:22;1999.90;;;999.90;;
7613;SDS011;3848;42.016;23.098;2022-12-08T00:21:49;1999.90;;;999.90;;
7613;SDS011;3848;42.016;23.098;2022-12-08T00:24:16;1999.90;;;999.90;;
7613;SDS011;3848;42.016;23.098;2022-12-08T00:26:44;1999.90;;;999.90;;
7613;SDS011;3848;42.016;23.098;2022-12-08T00:29:12;1999.90;;;999.90;;
7613;SDS011;3848;42.016;23.098;2022-12-08T00:31:39;1999.90;;;999.90;;
7613;SDS011;3848;42.016;23.098;2022-12-08T00:34:06;1999.90;;;999.90;;
7613;SDS011;3848;42.016;23.098;2022-12-08T00:36:33;1999.90;;;999.90;;
7613;SDS011;3848;42.016;23.098;2022-12-08T00:39:00;1999.90;;;999.90;;
7613;SDS011;3848;42.016;23.098;2022-12-08T00:41:27;1999.90;;;999.90;;
7613;SDS011;3848;42.016;23.098;2022-12-08T00:44:13;1999.90;;;999.90;;
7613;SDS011;3848;42.016;23.098;2022-12-08T00:46:43;1999.90;;;999.90;;
7613;SDS011;3848;42.016;23.098;2022-12-08T00:49:10;1999.90;;;999.90;;
7613;SDS011;3848;42.016;23.098;2022-12-08T00:51:38;1999.90;;;999.90;;
7613;SDS011;3848;42.016;23.098;2022-12-08T00:54:06;1999.90;;;999.90;;
7613;SDS011;3848;42.016;23.098;2022-12-08T00:56:33;1999.90;;;999.90;;
7613;SDS011;3848;42.016;23.098;2022-12-08T00:59:00;1999.90;;;999.90;;
7613;SDS011;3848;42.016;23.098;2022-12-08T01:01:29;1999.90;;;999.90;;
7613;SDS011;3848;42.016;23.098;2022-12-08T01:03:57;1999.90;;;999.90;;
7613;SDS011;3848;42.016;23.098;2022-12-08T01:06:23;1999.90;;;999.90;;
7613;SDS011;3848;42.016;23.098;2022-12-08T01:08:50;1999.90;;;999.90;;
7613;SDS011;3848;42.016;23.098;2022-12-08T01:11:17;1999.90;;;999.90;;
7613;SDS011;3848;42.016;23.098;2022-12-08T01:13:44;1999.90;;;999.90;;
7613;SDS011;3848;42.016;23.098;2022-12-08T01:16:17;1999.90;;;999.90;;
7613;SDS011;3848;42.016;23.098;2022-12-08T01:18:47;1999.90;;;999.90;;
7613;SDS011;3848;42.016;23.098;2022-12-08T01:21:13;1999.90;;;999.90;;
7613;SDS011;3848;42.016;23.098;2022-12-08T01:23:40;1999.90;;;999.90;;
7613;SDS011;3848;42.016;23.098;2022-12-08T01:26:08;1999.90;;;999.90;;
7613;SDS011;3848;42.016;23.098;2022-12-08T01:28:36;1999.90;;;999.90;;
7613;SDS011;3848;42.016;23.098;2022-12-08T01:31:04;1999.90;;;999.90;;
7613;SDS011;3848;42.016;23.098;2022-12-08T01:33:35;1999.90;;;999.90;;
7613;SDS011;3848;42.016;23.098;2022-12-08T01:36:04;1999.90;;;999.90;;
7613;SDS011;3848;42.016;23.098;2022-12-08T01:38:31;1999.90;;;999.90;;
7613;SDS011;3848;42.016;23.098;2022-12-08T01:40:58;1999.90;;;999.90;;
7613;SDS011;3848;42.016;23.098;2022-12-08T01:46:20;1999.90;;;999.90;;
7613;SDS011;3848;42.016;23.098;2022-12-08T01:48:46;1999.90;;;999.90;;
7613;SDS011;3848;42.016;23.098;2022-12-08T01:51:16;1999.90;;;999.90;;
7613;SDS011;3848;42.016;23.098;2022-12-08T01:53:43;1999.90;;;999.90;;
7613;SDS011;3848;42.016;23.098;2022-12-08T01:56:11;1999.90;;;999.90;;
7613;SDS011;3848;42.016;23.098;2022-12-08T01:58:42;1999.90;;;999.90;;
7613;SDS011;3848;42.016;23.098;2022-12-08T02:01:12;1999.90;;;999.90;;
7613;SDS011;3848;42.016;23.098;2022-12-08T02:03:41;1999.90;;;999.90;;
7613;SDS011;3848;42.016;23.098;2022-12-08T02:06:11;1999.90;;;999.90;;
7613;SDS011;3848;42.016;23.098;2022-12-08T02:08:40;1999.90;;;999.90;;
7613;SDS011;3848;42.016;23.098;2022-12-08T02:11:08;1999.90;;;999.90;;
7613;SDS011;3848;42.016;23.098;2022-12-08T02:13:36;1999.90;;;999.90;;
7613;SDS011;3848;42.016;23.098;2022-12-08T02:16:06;1999.90;;;999.90;;
7613;SDS011;3848;42.016;23.098;2022-12-08T02:18:41;1999.90;;;999.90;;
7613;SDS011;3848;42.016;23.098;2022-12-08T02:21:20;1999.90;;;999.90;;
7613;SDS011;3848;42.016;23.098;2022-12-08T02:23:56;1999.90;;;999.90;;
7613;SDS011;3848;42.016;23.098;2022-12-08T02:26:37;1999.90;;;999.90;;
7613;SDS011;3848;42.016;23.098;2022-12-08T02:32:53;1999.90;;;999.90;;
7613;SDS011;3848;42.016;23.098;2022-12-08T02:35:44;1999.90;;;999.90;;
7613;SDS011;3848;42.016;23.098;2022-12-08T02:38:20;1999.90;;;999.90;;
7613;SDS011;3848;42.016;23.098;2022-12-08T02:40:58;1999.90;;;999.90;;
7613;SDS011;3848;42.016;23.098;2022-12-08T02:43:39;1999.90;;;999.90;;
7613;SDS011;3848;42.016;23.098;2022-12-08T02:46:10;1999.90;;;999.90;;
7613;SDS011;3848;42.016;23.098;2022-12-08T02:48:40;1999.90;;;999.90;;
7613;SDS011;3848;42.016;23.098;2022-12-08T02:51:09;1999.90;;;999.90;;
7613;SDS011;3848;42.016;23.098;2022-12-08T02:53:36;1999.90;;;999.90;;
7613;SDS011;3848;42.016;23.098;2022-12-08T02:56:06;1999.90;;;999.90;;
7613;SDS011;3848;42.016;23.098;2022-12-08T02:58:58;1999.90;;;999.90;;
7613;SDS011;3848;42.016;23.098;2022-12-08T03:01:48;1999.90;;;999.90;;
7613;SDS011;3848;42.016;23.098;2022-12-08T03:04:26;1999.90;;;999.90;;
7613;SDS011;3848;42.016;23.098;2022-12-08T03:07:05;1999.90;;;999.90;;
7613;SDS011;3848;42.016;23.098;2022-12-08T03:09:37;1999.90;;;999.90;;
7613;SDS011;3848;42.016;23.098;2022-12-08T03:12:10;1999.90;;;999.90;;
7613;SDS011;3848;42.016;23.098;2022-12-08T03:14:43;1999.90;;;999.90;;
7613;SDS011;3848;42.016;23.098;2022-12-08T03:17:13;1999.90;;;999.90;;
7613;SDS011;3848;42.016;23.098;2022-12-08T03:19:42;1999.90;;;999.90;;
7613;SDS011;3848;42.016;23.098;2022-12-08T03:22:12;1999.90;;;999.90;;
7613;SDS011;3848;42.016;23.098;2022-12-08T03:24:42;1999.90;;;999.90;;
7613;SDS011;3848;42.016;23.098;2022-12-08T03:27:12;1999.90;;;999.90;;
7613;SDS011;3848;42.016;23.098;2022-12-08T03:29:40;1999.90;;;999.90;;
7613;SDS011;3848;42.016;23.098;2022-12-08T03:32:08;1999.90;;;999.90;;
7613;SDS011;3848;42.016;23.098;2022-12-08T03:34:40;1999.90;;;999.90;;
7613;SDS011;3848;42.016;23.098;2022-12-08T03:37:09;1999.90;;;999.90;;
7613;SDS011;3848;42.016;23.098;2022-12-08T03:39:37;1999.90;;;999.90;;
7613;SDS011;3848;42.016;23.098;2022-12-08T03:42:04;1999.90;;;999.90;;
7613;SDS011;3848;42.016;23.098;2022-12-08T03:44:31;1999.90;;;999.90;;
7613;SDS011;3848;42.016;23.098;2022-12-08T03:46:57;1999.90;;;999.90;;
7613;SDS011;3848;42.016;23.098;2022-12-08T03:49:24;1999.90;;;999.90;;
7613;SDS011;3848;42.016;23.098;2022-12-08T03:51:51;1999.90;;;999.90;;
7613;SDS011;3848;42.016;23.098;2022-12-08T03:54:18;1999.90;;;999.90;;
7613;SDS011;3848;42.016;23.098;2022-12-08T03:56:46;1999.90;;;999.90;;
7613;SDS011;3848;42.016;23.098;2022-12-08T03:59:13;1999.90;;;999.90;;
7613;SDS011;3848;42.016;23.098;2022-12-08T04:01:39;1999.90;;;999.90;;
7613;SDS011;3848;42.016;23.098;2022-12-08T04:04:06;1999.90;;;999.90;;
7613;SDS011;3848;42.016;23.098;2022-12-08T04:06:33;1999.90;;;999.90;;
7613;SDS011;3848;42.016;23.098;2022-12-08T04:09:00;1999.90;;;999.90;;
7613;SDS011;3848;42.016;23.098;2022-12-08T04:11:26;1999.90;;;999.90;;
7613;SDS011;3848;42.016;23.098;2022-12-08T04:13:55;1999.90;;;999.90;;
7613;SDS011;3848;42.016;23.098;2022-12-08T04:16:22;1999.90;;;999.90;;
7613;SDS011;3848;42.016;23.098;2022-12-08T04:18:50;1999.90;;;999.90;;
7613;SDS011;3848;42.016;23.098;2022-12-08T04:21:17;1999.90;;;999.90;;
7613;SDS011;3848;42.016;23.098;2022-12-08T04:23:45;1999.90;;;999.90;;
7613;SDS011;3848;42.016;23.098;2022-12-08T04:26:12;1999.90;;;999.90;;
7613;SDS011;3848;42.016;23.098;2022-12-08T04:28:39;1999.90;;;999.90;;
7613;SDS011;3848;42.016;23.098;2022-12-08T04:31:08;1999.90;;;999.90;;
7613;SDS011;3848;42.016;23.098;2022-12-08T04:33:34;1999.90;;;999.90;;
7613;SDS011;3848;42.016;23.098;2022-12-08T04:36:02;1999.90;;;999.90;;
7613;SDS011;3848;42.016;23.098;2022-12-08T04:38:29;1999.90;;;999.90;;
7613;SDS011;3848;42.016;23.098;2022-12-08T04:40:56;1999.90;;;999.90;;
7613;SDS011;3848;42.016;23.098;2022-12-08T04:43:23;1999.90;;;999.90;;
7613;SDS011;3848;42.016;23.098;2022-12-08T04:45:50;1999.90;;;999.90;;
7613;SDS011;3848;42.016;23.098;2022-12-08T04:48:18;1999.90;;;999.90;;
7613;SDS011;3848;42.016;23.098;2022-12-08T04:50:45;1999.90;;;999.90;;
7613;SDS011;3848;42.016;23.098;2022-12-08T04:53:12;1999.90;;;999.90;;
7613;SDS011;3848;42.016;23.098;2022-12-08T04:55:40;1999.90;;;999.90;;
7613;SDS011;3848;42.016;23.098;2022-12-08T04:58:09;1999.90;;;999.90;;
7613;SDS011;3848;42.016;23.098;2022-12-08T05:00:37;1999.90;;;999.90;;
7613;SDS011;3848;42.016;23.098;2022-12-08T05:03:04;1999.90;;;999.90;;
7613;SDS011;3848;42.016;23.098;2022-12-08T05:05:32;1999.90;;;999.90;;
7613;SDS011;3848;42.016;23.098;2022-12-08T05:07:59;1999.90;;;999.90;;
7613;SDS011;3848;42.016;23.098;2022-12-08T05:10:26;1999.90;;;999.90;;
7613;SDS011;3848;42.016;23.098;2022-12-08T05:12:52;1999.90;;;999.90;;
7613;SDS011;3848;42.016;23.098;2022-12-08T05:15:19;1999.90;;;999.90;;
7613;SDS011;3848;42.016;23.098;2022-12-08T05:17:46;1999.90;;;999.90;;
7613;SDS011;3848;42.016;23.098;2022-12-08T05:20:13;1999.90;;;999.90;;
7613;SDS011;3848;42.016;23.098;2022-12-08T05:22:41;1999.90;;;999.90;;
7613;SDS011;3848;42.016;23.098;2022-12-08T05:25:08;1999.90;;;999.90;;
7613;SDS011;3848;42.016;23.098;2022-12-08T05:27:35;1999.90;;;999.90;;
7613;SDS011;3848;42.016;23.098;2022-12-08T05:30:02;1999.90;;;999.90;;
7613;SDS011;3848;42.016;23.098;2022-12-08T05:32:30;1999.90;;;999.90;;
7613;SDS011;3848;42.016;23.098;2022-12-08T05:34:56;1999.90;;;999.90;;
7613;SDS011;3848;42.016;23.098;2022-12-08T05:37:23;1999.90;;;999.90;;
7613;SDS011;3848;42.016;23.098;2022-12-08T05:39:51;1999.90;;;999.90;;
7613;SDS011;3848;42.016;23.098;2022-12-08T05:42:18;1999.90;;;999.90;;
7613;SDS011;3848;42.016;23.098;2022-12-08T05:44:45;1999.90;;;999.90;;
7613;SDS011;3848;42.016;23.098;2022-12-08T05:47:12;1999.90;;;999.90;;
7613;SDS011;3848;42.016;23.098;2022-12-08T05:49:38;1999.90;;;999.90;;
7613;SDS011;3848;42.016;23.098;2022-12-08T05:52:05;1999.90;;;999.90;;
7613;SDS011;3848;42.016;23.098;2022-12-08T05:54:32;1999.90;;;999.90;;
7613;SDS011;3848;42.016;23.098;2022-12-08T05:57:01;1999.90;;;999.90;;
7613;SDS011;3848;42.016;23.098;2022-12-08T05:59:27;1999.90;;;999.90;;
7613;SDS011;3848;42.016;23.098;2022-12-08T06:01:54;1999.90;;;999.90;;
7613;SDS011;3848;42.016;23.098;2022-12-08T06:04:21;1999.90;;;999.90;;
7613;SDS011;3848;42.016;23.098;2022-12-08T06:06:48;1999.90;;;999.90;;
7613;SDS011;3848;42.016;23.098;2022-12-08T06:09:15;1999.90;;;999.90;;
7613;SDS011;3848;42.016;23.098;2022-12-08T06:11:41;1999.90;;;999.90;;
7613;SDS011;3848;42.016;23.098;2022-12-08T06:14:11;1999.90;;;999.90;;
7613;SDS011;3848;42.016;23.098;2022-12-08T06:16:38;1999.90;;;999.90;;
7613;SDS011;3848;42.016;23.098;2022-12-08T06:19:05;1999.90;;;999.90;;
7613;SDS011;3848;42.016;23.098;2022-12-08T06:21:32;1999.90;;;999.90;;
7613;SDS011;3848;42.016;23.098;2022-12-08T06:23:59;1999.90;;;999.90;;
7613;SDS011;3848;42.016;23.098;2022-12-08T06:26:26;1999.90;;;999.90;;
7613;SDS011;3848;42.016;23.098;2022-12-08T06:28:52;1999.90;;;999.90;;
7613;SDS011;3848;42.016;23.098;2022-12-08T06:31:21;1999.90;;;999.90;;
7613;SDS011;3848;42.016;23.098;2022-12-08T06:33:49;1999.90;;;999.90;;
7613;SDS011;3848;42.016;23.098;2022-12-08T06:36:19;1999.90;;;999.90;;
7613;SDS011;3848;42.016;23.098;2022-12-08T06:38:47;1999.90;;;999.90;;
7613;SDS011;3848;42.016;23.098;2022-12-08T06:41:15;1999.90;;;999.90;;
7613;SDS011;3848;42.016;23.098;2022-12-08T06:43:42;1999.90;;;999.90;;
7613;SDS011;3848;42.016;23.098;2022-12-08T06:46:10;1999.90;;;999.90;;
7613;SDS011;3848;42.016;23.098;2022-12-08T06:48:40;1999.90;;;999.90;;
7613;SDS011;3848;42.016;23.098;2022-12-08T06:51:07;1999.90;;;999.90;;
7613;SDS011;3848;42.016;23.098;2022-12-08T06:53:36;1999.90;;;999.90;;
7613;SDS011;3848;42.016;23.098;2022-12-08T06:56:03;1999.90;;;999.90;;
7613;SDS011;3848;42.016;23.098;2022-12-08T06:58:31;1999.90;;;999.90;;
7613;SDS011;3848;42.016;23.098;2022-12-08T07:01:02;1999.90;;;999.90;;
7613;SDS011;3848;42.016;23.098;2022-12-08T07:03:30;1999.90;;;999.90;;
7613;SDS011;3848;42.016;23.098;2022-12-08T07:05:58;1999.90;;;999.90;;
7613;SDS011;3848;42.016;23.098;2022-12-08T07:08:25;1999.90;;;999.90;;
7613;SDS011;3848;42.016;23.098;2022-12-08T07:10:51;1999.90;;;999.90;;
7613;SDS011;3848;42.016;23.098;2022-12-08T07:13:18;1999.90;;;999.90;;
7613;SDS011;3848;42.016;23.098;2022-12-08T07:15:45;1999.90;;;999.90;;
7613;SDS011;3848;42.016;23.098;2022-12-08T07:18:12;1999.90;;;999.90;;
7613;SDS011;3848;42.016;23.098;2022-12-08T07:20:39;1999.90;;;999.90;;
7613;SDS011;3848;42.016;23.098;2022-12-08T07:23:07;1999.90;;;999.90;;
7613;SDS011;3848;42.016;23.098;2022-12-08T07:25:34;1999.90;;;999.90;;
7613;SDS011;3848;42.016;23.098;2022-12-08T07:28:04;1999.90;;;999.90;;
7613;SDS011;3848;42.016;23.098;2022-12-08T07:30:33;1999.90;;;999.90;;
7613;SDS011;3848;42.016;23.098;2022-12-08T07:33:00;1999.90;;;999.90;;
7613;SDS011;3848;42.016;23.098;2022-12-08T07:35:28;1999.90;;;999.90;;
7613;SDS011;3848;42.016;23.098;2022-12-08T07:37:55;1999.90;;;999.90;;
7613;SDS011;3848;42.016;23.098;2022-12-08T07:40:24;1999.90;;;999.90;;
7613;SDS011;3848;42.016;23.098;2022-12-08T07:42:51;1999.90;;;999.90;;
7613;SDS011;3848;42.016;23.098;2022-12-08T07:45:17;1999.90;;;999.90;;
7613;SDS011;3848;42.016;23.098;2022-12-08T07:47:44;1999.90;;;999.90;;
7613;SDS011;3848;42.016;23.098;2022-12-08T07:50:11;1999.90;;;999.90;;
7613;SDS011;3848;42.016;23.098;2022-12-08T07:52:38;1999.90;;;999.90;;
7613;SDS011;3848;42.016;23.098;2022-12-08T07:55:05;1999.90;;;999.90;;
7613;SDS011;3848;42.016;23.098;2022-12-08T07:57:34;1999.90;;;999.90;;
7613;SDS011;3848;42.016;23.098;2022-12-08T08:00:01;1999.90;;;999.90;;
7613;SDS011;3848;42.016;23.098;2022-12-08T08:02:29;1999.90;;;999.90;;
7613;SDS011;3848;42.016;23.098;2022-12-08T08:04:55;1999.90;;;999.90;;
7613;SDS011;3848;42.016;23.098;2022-12-08T08:07:22;1999.90;;;999.90;;
7613;SDS011;3848;42.016;23.098;2022-12-08T08:09:49;1999.90;;;999.90;;
7613;SDS011;3848;42.016;23.098;2022-12-08T08:12:16;1999.90;;;999.90;;
7613;SDS011;3848;42.016;23.098;2022-12-08T08:14:44;1999.90;;;999.90;;
7613;SDS011;3848;42.016;23.098;2022-12-08T08:17:11;1999.90;;;999.90;;
7613;SDS011;3848;42.016;23.098;2022-12-08T08:19:37;1999.90;;;999.90;;
7613;SDS011;3848;42.016;23.098;2022-12-08T08:22:04;1999.90;;;999.90;;
7613;SDS011;3848;42.016;23.098;2022-12-08T08:24:31;1999.90;;;999.90;;
7613;SDS011;3848;42.016;23.098;2022-12-08T08:26:58;1999.90;;;999.90;;
7613;SDS011;3848;42.016;23.098;2022-12-08T08:29:25;1999.90;;;999.90;;
7613;SDS011;3848;42.016;23.098;2022-12-08T08:31:53;1999.90;;;999.90;;
7613;SDS011;3848;42.016;23.098;2022-12-08T08:34:20;1999.90;;;999.90;;
7613;SDS011;3848;42.016;23.098;2022-12-08T08:36:46;1999.90;;;999.90;;
7613;SDS011;3848;42.016;23.098;2022-12-08T08:39:13;1999.90;;;999.90;;
7613;SDS011;3848;42.016;23.098;2022-12-08T08:41:40;1999.90;;;999.90;;
7613;SDS011;3848;42.016;23.098;2022-12-08T08:44:07;1349.20;;;681.33;;
7613;SDS011;3848;42.016;23.098;2022-12-08T08:46:34;51.03;;;48.13;;
7613;SDS011;3848;42.016;23.098;2022-12-08T08:49:02;54.27;;;51.10;;
7613;SDS011;3848;42.016;23.098;2022-12-08T08:51:29;54.27;;;50.60;;
7613;SDS011;3848;42.016;23.098;2022-12-08T08:53:56;58.17;;;54.57;;
7613;SDS011;3848;42.016;23.098;2022-12-08T08:56:23;50.97;;;47.87;;
7613;SDS011;3848;42.016;23.098;2022-12-08T08:58:50;50.63;;;47.83;;
7613;SDS011;3848;42.016;23.098;2022-12-08T09:01:19;56.60;;;52.77;;
7613;SDS011;3848;42.016;23.098;2022-12-08T09:03:47;51.37;;;48.47;;
7613;SDS011;3848;42.016;23.098;2022-12-08T09:06:16;52.87;;;49.43;;
7613;SDS011;3848;42.016;23.098;2022-12-08T09:08:43;47.63;;;44.93;;
7613;SDS011;3848;42.016;23.098;2022-12-08T09:11:11;49.10;;;46.30;;
7613;SDS011;3848;42.016;23.098;2022-12-08T09:13:38;48.40;;;45.60;;
7613;SDS011;3848;42.016;23.098;2022-12-08T09:16:05;48.73;;;45.93;;
7613;SDS011;3848;42.016;23.098;2022-12-08T09:18:34;50.07;;;47.17;;
7613;SDS011;3848;42.016;23.098;2022-12-08T09:21:02;48.83;;;46.03;;
7613;SDS011;3848;42.016;23.098;2022-12-08T09:23:31;48.67;;;45.87;;
7613;SDS011;3848;42.016;23.098;2022-12-08T09:25:58;49.63;;;46.80;;
7613;SDS011;3848;42.016;23.098;2022-12-08T09:28:25;49.17;;;46.23;;
7613;SDS011;3848;42.016;23.098;2022-12-08T09:30:52;51.53;;;48.40;;
7613;SDS011;3848;42.016;23.098;2022-12-08T09:33:18;48.67;;;45.97;;
7613;SDS011;3848;42.016;23.098;2022-12-08T09:35:45;51.13;;;48.17;;
7613;SDS011;3848;42.016;23.098;2022-12-08T09:38:12;48.87;;;46.17;;
7613;SDS011;3848;42.016;23.098;2022-12-08T09:40:44;54.60;;;51.50;;
7613;SDS011;3848;42.016;23.098;2022-12-08T09:43:18;49.73;;;46.83;;
7613;SDS011;3848;42.016;23.098;2022-12-08T09:46:09;56.53;;;51.23;;
7613;SDS011;3848;42.016;23.098;2022-12-08T09:48:39;48.47;;;45.73;;
7613;SDS011;3848;42.016;23.098;2022-12-08T09:51:12;47.67;;;45.07;;
7613;SDS011;3848;42.016;23.098;2022-12-08T09:53:41;48.50;;;45.77;;
7613;SDS011;3848;42.016;23.098;2022-12-08T09:56:14;46.97;;;44.37;;
7613;SDS011;3848;42.016;23.098;2022-12-08T09:58:44;51.47;;;48.23;;
7613;SDS011;3848;42.016;23.098;2022-12-08T10:01:16;46.40;;;43.83;;
7613;SDS011;3848;42.016;23.098;2022-12-08T10:03:44;47.07;;;44.47;;
7613;SDS011;3848;42.016;23.098;2022-12-08T10:06:14;52.07;;;48.97;;
7613;SDS011;3848;42.016;23.098;2022-12-08T10:08:47;48.80;;;46.10;;
7613;SDS011;3848;42.016;23.098;2022-12-08T10:11:24;50.60;;;47.47;;
7613;SDS011;3848;42.016;23.098;2022-12-08T10:13:57;49.47;;;46.63;;
7613;SDS011;3848;42.016;23.098;2022-12-08T10:16:38;46.50;;;43.97;;
7613;SDS011;3848;42.016;23.098;2022-12-08T10:19:10;50.30;;;46.90;;
7613;SDS011;3848;42.016;23.098;2022-12-08T10:21:41;48.90;;;45.97;;
7613;SDS011;3848;42.016;23.098;2022-12-08T10:24:10;48.10;;;45.40;;
7613;SDS011;3848;42.016;23.098;2022-12-08T10:26:43;50.97;;;47.60;;
7613;SDS011;3848;42.016;23.098;2022-12-08T10:29:11;49.07;;;45.97;;
7613;SDS011;3848;42.016;23.098;2022-12-08T10:31:38;52.63;;;48.90;;
7613;SDS011;3848;42.016;23.098;2022-12-08T10:34:12;47.53;;;44.80;;
7613;SDS011;3848;42.016;23.098;2022-12-08T10:36:45;49.80;;;46.80;;
7613;SDS011;3848;42.016;23.098;2022-12-08T10:39:30;50.50;;;47.40;;
7613;SDS011;3848;42.016;23.098;2022-12-08T10:42:05;48.70;;;45.63;;
7613;SDS011;3848;42.016;23.098;2022-12-08T10:44:54;48.97;;;45.83;;
7613;SDS011;3848;42.016;23.098;2022-12-08T10:47:26;51.97;;;48.13;;
7613;SDS011;3848;42.016;23.098;2022-12-08T10:50:08;49.23;;;45.77;;
7613;SDS011;3848;42.016;23.098;2022-12-08T10:52:42;47.97;;;44.80;;
7613;SDS011;3848;42.016;23.098;2022-12-08T10:55:13;48.73;;;45.67;;
7613;SDS011;3848;42.016;23.098;2022-12-08T10:57:42;48.20;;;44.80;;
7613;SDS011;3848;42.016;23.098;2022-12-08T11:00:11;47.30;;;43.57;;
7613;SDS011;3848;42.016;23.098;2022-12-08T11:02:50;51.33;;;47.43;;
7613;SDS011;3848;42.016;23.098;2022-12-08T11:05:18;45.90;;;42.83;;
7613;SDS011;3848;42.016;23.098;2022-12-08T11:07:46;46.90;;;43.43;;
7613;SDS011;3848;42.016;23.098;2022-12-08T11:10:17;48.57;;;45.23;;
7613;SDS011;3848;42.016;23.098;2022-12-08T11:12:47;47.70;;;44.37;;
7613;SDS011;3848;42.016;23.098;2022-12-08T11:15:15;46.47;;;43.47;;
7613;SDS011;3848;42.016;23.098;2022-12-08T11:17:43;47.63;;;44.30;;
7613;SDS011;3848;42.016;23.098;2022-12-08T11:20:19;48.33;;;45.07;;
7613;SDS011;3848;42.016;23.098;2022-12-08T11:22:50;51.57;;;48.10;;
7613;SDS011;3848;42.016;23.098;2022-12-08T11:25:19;51.70;;;47.60;;
7613;SDS011;3848;42.016;23.098;2022-12-08T11:27:50;51.23;;;48.03;;
7613;SDS011;3848;42.016;23.098;2022-12-08T11:30:19;52.63;;;49.03;;
7613;SDS011;3848;42.016;23.098;2022-12-08T11:32:48;46.37;;;43.67;;
7613;SDS011;3848;42.016;23.098;2022-12-08T11:35:21;54.90;;;50.83;;
7613;SDS011;3848;42.016;23.098;2022-12-08T11:37:52;52.60;;;49.07;;
7613;SDS011;3848;42.016;23.098;2022-12-08T11:40:22;52.80;;;49.40;;
7613;SDS011;3848;42.016;23.098;2022-12-08T11:45:34;53.53;;;49.93;;
7613;SDS011;3848;42.016;23.098;2022-12-08T11:48:04;59.07;;;54.33;;
7613;SDS011;3848;42.016;23.098;2022-12-08T11:50:38;56.00;;;52.20;;
7613;SDS011;3848;42.016;23.098;2022-12-08T11:53:13;54.13;;;50.47;;
7613;SDS011;3848;42.016;23.098;2022-12-08T11:55:48;50.03;;;46.93;;
7613;SDS011;3848;42.016;23.098;2022-12-08T11:58:20;51.07;;;48.00;;
7613;SDS011;3848;42.016;23.098;2022-12-08T12:00:52;51.77;;;48.33;;
7613;SDS011;3848;42.016;23.098;2022-12-08T12:03:21;56.17;;;51.87;;
7613;SDS011;3848;42.016;23.098;2022-12-08T12:06:04;48.80;;;46.00;;
7613;SDS011;3848;42.016;23.098;2022-12-08T12:08:47;49.77;;;46.53;;
7613;SDS011;3848;42.016;23.098;2022-12-08T12:11:23;57.43;;;52.47;;
7613;SDS011;3848;42.016;23.098;2022-12-08T12:14:24;51.00;;;47.57;;
7613;SDS011;3848;42.016;23.098;2022-12-08T12:17:03;56.93;;;52.87;;
7613;SDS011;3848;42.016;23.098;2022-12-08T12:19:33;57.37;;;52.90;;
7613;SDS011;3848;42.016;23.098;2022-12-08T12:22:07;51.50;;;48.00;;
7613;SDS011;3848;42.016;23.098;2022-12-08T12:24:41;55.10;;;51.07;;
7613;SDS011;3848;42.016;23.098;2022-12-08T12:27:19;49.00;;;45.70;;
7613;SDS011;3848;42.016;23.098;2022-12-08T12:29:51;51.53;;;48.17;;
7613;SDS011;3848;42.016;23.098;2022-12-08T12:32:23;48.70;;;45.53;;
7613;SDS011;3848;42.016;23.098;2022-12-08T12:34:51;54.10;;;50.27;;
7613;SDS011;3848;42.016;23.098;2022-12-08T12:37:20;49.77;;;46.33;;
7613;SDS011;3848;42.016;23.098;2022-12-08T12:39:53;47.47;;;44.67;;
7613;SDS011;3848;42.016;23.098;2022-12-08T12:42:35;46.33;;;43.73;;
7613;SDS011;3848;42.016;23.098;2022-12-08T12:45:21;53.37;;;49.13;;
7613;SDS011;3848;42.016;23.098;2022-12-08T12:48:19;48.63;;;45.63;;
7613;SDS011;3848;42.016;23.098;2022-12-08T12:50:51;55.20;;;51.03;;
7613;SDS011;3848;42.016;23.098;2022-12-08T12:59:34;48.20;;;45.20;;
7613;SDS011;3848;42.016;23.098;2022-12-08T13:02:15;50.20;;;46.93;;
7613;SDS011;3848;42.016;23.098;2022-12-08T13:04:50;55.90;;;52.13;;
7613;SDS011;3848;42.016;23.098;2022-12-08T13:07:28;49.40;;;46.40;;
7613;SDS011;3848;42.016;23.098;2022-12-08T13:09:59;52.53;;;48.77;;
7613;SDS011;3848;42.016;23.098;2022-12-08T13:12:36;47.30;;;44.60;;
7613;SDS011;3848;42.016;23.098;2022-12-08T13:15:03;50.10;;;47.03;;
7613;SDS011;3848;42.016;23.098;2022-12-08T13:17:34;51.57;;;48.47;;
7613;SDS011;3848;42.016;23.098;2022-12-08T13:20:03;51.67;;;48.40;;
7613;SDS011;3848;42.016;23.098;2022-12-08T13:22:48;50.67;;;47.27;;
7613;SDS011;3848;42.016;23.098;2022-12-08T13:31:39;54.83;;;50.63;;
7613;SDS011;3848;42.016;23.098;2022-12-08T13:34:11;50.40;;;47.07;;
7613;SDS011;3848;42.016;23.098;2022-12-08T13:36:42;54.47;;;50.67;;
7613;SDS011;3848;42.016;23.098;2022-12-08T13:39:19;56.13;;;52.17;;
7613;SDS011;3848;42.016;23.098;2022-12-08T13:41:52;50.73;;;47.37;;
7613;SDS011;3848;42.016;23.098;2022-12-08T13:44:26;53.50;;;49.83;;
7613;SDS011;3848;42.016;23.098;2022-12-08T13:46:59;55.33;;;51.23;;
7613;SDS011;3848;42.016;23.098;2022-12-08T13:49:28;51.43;;;48.03;;
7613;SDS011;3848;42.016;23.098;2022-12-08T13:52:02;51.37;;;47.43;;
7613;SDS011;3848;42.016;23.098;2022-12-08T13:54:31;50.60;;;46.83;;
7613;SDS011;3848;42.016;23.098;2022-12-08T13:57:00;61.50;;;56.70;;
7613;SDS011;3848;42.016;23.098;2022-12-08T13:59:32;51.67;;;48.00;;
7613;SDS011;3848;42.016;23.098;2022-12-08T14:02:00;55.23;;;51.10;;
7613;SDS011;3848;42.016;23.098;2022-12-08T14:04:31;56.43;;;52.47;;
7613;SDS011;3848;42.016;23.098;2022-12-08T14:06:59;50.83;;;47.40;;
7613;SDS011;3848;42.016;23.098;2022-12-08T14:09:31;57.37;;;52.97;;
7613;SDS011;3848;42.016;23.098;2022-12-08T14:12:02;58.20;;;53.67;;
7613;SDS011;3848;42.016;23.098;2022-12-08T14:14:31;53.07;;;49.40;;
7613;SDS011;3848;42.016;23.098;2022-12-08T14:17:02;53.93;;;50.00;;
7613;SDS011;3848;42.016;23.098;2022-12-08T14:19:32;51.30;;;47.50;;
7613;SDS011;3848;42.016;23.098;2022-12-08T14:22:00;51.23;;;47.93;;
7613;SDS011;3848;42.016;23.098;2022-12-08T14:24:31;53.93;;;50.10;;
7613;SDS011;3848;42.016;23.098;2022-12-08T14:26:58;1999.90;;;999.90;;
7613;SDS011;3848;42.016;23.098;2022-12-08T14:29:32;63.97;;;58.17;;
7613;SDS011;3848;42.016;23.098;2022-12-08T14:32:04;1999.90;;;999.90;;
7613;SDS011;3848;42.016;23.098;2022-12-08T14:34:35;1999.90;;;999.90;;
7613;SDS011;3848;42.016;23.098;2022-12-08T14:37:07;50.57;;;46.90;;
7613;SDS011;3848;42.016;23.098;2022-12-08T14:39:37;55.33;;;51.17;;
7613;SDS011;3848;42.016;23.098;2022-12-08T14:42:05;50.83;;;47.50;;
7613;SDS011;3848;42.016;23.098;2022-12-08T14:44:34;54.97;;;50.37;;
7613;SDS011;3848;42.016;23.098;2022-12-08T14:47:05;54.40;;;50.23;;
7613;SDS011;3848;42.016;23.098;2022-12-08T14:49:36;56.00;;;51.87;;